EHEHEDDW

Guest
Details From EHEH - Eindhoven
To EDDW - Bremen
Flight Number -
Tags generated
Created
Modified
Stats Distance 158 nm / 292 km
Max Altitude 19,800 ft / 6,035 m
Waypoints 3
Social Downloads 1
Likes 0
Share VATSIM

Download

Looking for another format? Having issues loading an existing format? Contact us
Advertisement - Login to hide

Notes

Basic altitude profile: - Ascent Rate: 1800ft/min - Ascent Speed: 280kts - Cruise Altitude: 30000ft - Cruise Speed: 250kts - Descent Rate: 1800ft/min - Descent Speed: 220kts Options: - Use NATs: yes - Use PACOTS: yes - Use low airways: yes - Use high airways: yes

Route

EHEH GOTIG EDDW

ID Type Via Altitude Latitude Longitude Leg Dist Tot Dist Heading (true) Name
O EHEH APT - 0 ft / 0 m 51.45013˚ 5.37451˚ - 0 nm - Eindhoven
GOTIG FIX - 19,800 ft / 6,035 m 52.11877˚ 6.76396˚ 65 nm 65 nm 52° / 53° -
O EDDW APT - 0 ft / 0 m 53.04571˚ 8.78900˚ 92 nm 157 nm 52° / 54° Bremen

Altitude Profile

Advertisement - Login to hide

EHEH

Details ICAO EHEH (EIN)
Name Eindhoven
Region Netherlands
Timezone Europe/Amsterdam (UTC+2.0)
Stats Elevation 74 ft / 23 m (AMSL)
Location 51.450133° 5.374513°
Runways 1
Magnetic Variation 1.432° E

METAR

EHEH 220025Z AUTO 09005KT 060V120 9999 NSC 17/11 Q1011 BLU

Decode

TAF

TAF EHEH 212302Z 2200/2306 04003KT CAVOK TEMPO 2212/2223 4000 SHRA SCT050CB BKN060 PROB40 TEMPO 2213/2223 VRB10G20KT 3500 TSRAGR BKN040CB BKN050 PROB30 2303/2306 4000 SHRA SCT050CB BKN060

Decode

Departure Runways

ID Width Length Bearing (true) Bearing (mag) Surface Threshold Offset Overrun Length
03 148 ft / 45 m 9,832 ft / 2,997 m 34.92° 33.49° Asphalt 821 ft / 250 m 0 ft / 0 m
21 148 ft / 45 m 9,832 ft / 2,997 m 214.94° 213.51° Asphalt 821 ft / 250 m 0 ft / 0 m

EDDW

Details ICAO EDDW (BRE)
Name Bremen
Region Germany - Civil
Timezone Europe/Berlin (UTC+2.0)
Stats Elevation 14 ft / 4 m (AMSL)
Location 53.045715° 8.789003°
Runways 2
Magnetic Variation 2.464° E

METAR

EDDW 220020Z 08008KT CAVOK 14/06 Q1014

Decode

TAF

TAF EDDW 212300Z 2200/2224 09005KT CAVOK BECMG 2207/2209 12010KT PROB30 TEMPO 2212/2216 TSRA SCT045CB BECMG 2215/2218 09005KT

Decode

Destination Runways

ID Width Length Bearing (true) Bearing (mag) Surface Threshold Offset Overrun Length
05 75 ft / 23 m 2,298 ft / 700 m 51.18° 48.72° Asphalt 0 ft / 0 m 0 ft / 0 m
09 151 ft / 46 m 8,616 ft / 2,626 m 87.78° 85.32° Asphalt 945 ft / 288 m 0 ft / 0 m
23 75 ft / 23 m 2,298 ft / 700 m 231.19° 228.73° Asphalt 0 ft / 0 m 0 ft / 0 m
27 151 ft / 46 m 8,616 ft / 2,626 m 267.82° 265.36° Asphalt 984 ft / 300 m 0 ft / 0 m

Approach Navaids

Runway Type Ident Frequency Range Bearing (true) Bearing (mag) Slope Elevation
09 Localiser IBRE 110.30 MHz 18 nm / 33 km 87.77° 85.31° - 13 ft / 4 m (AMSL)
09 Glidescope IBRE 110.30 MHz 10 nm / 19 km 87.80° 85.34° 3.00° 13 ft / 4 m (AMSL)
27 Localiser IBRW 110.90 MHz 18 nm / 33 km 267.87° 265.41° - 14 ft / 4 m (AMSL)
27 Glidescope IBRW 110.90 MHz 10 nm / 19 km 267.80° 265.34° 3.00° 14 ft / 4 m (AMSL)